Time;durP1;ratioP1;P1;durP2;ratioP2;P2;SDS_P1;SDS_P2;PMS_P1;PMS_P2;Temp;Humidity;BMP_temperature;BMP_pressure;BME280_temperature;BME280_humidity;BME280_pressure;Samples;Min_cycle;Max_cycle;Signal;HPM_P1;HPM_P2
2021/07/23 00:02:19;;;;;;;16.85;11.98;;;26.30;91.10;;;;;;4877605;29;20060;-65
2021/07/23 00:05:23;;;;;;;31.45;12.65;;;26.20;91.30;;;;;;4879259;29;20536;-65
2021/07/23 00:08:27;;;;;;;20.40;12.57;;;26.10;91.10;;;;;;4879150;29;20051;-65
2021/07/23 00:11:31;;;;;;;18.27;11.32;;;26.10;91.30;;;;;;4879245;29;20048;-65
2021/07/23 00:14:35;;;;;;;23.73;11.60;;;25.90;91.30;;;;;;4879408;29;20052;-65
2021/07/23 00:17:39;;;;;;;17.35;11.43;;;26.00;91.40;;;;;;4879271;29;20047;-65
2021/07/23 00:20:43;;;;;;;24.52;12.10;;;25.90;91.50;;;;;;4879099;29;20040;-65
2021/07/23 00:23:50;;;;;;;25.90;12.80;;;25.90;91.60;;;;;;4878808;29;20060;-65
2021/07/23 00:26:54;;;;;;;21.30;13.02;;;25.80;91.80;;;;;;4878413;29;20060;-65
2021/07/23 00:29:58;;;;;;;23.55;13.25;;;25.70;92.00;;;;;;4878853;29;20127;-65
2021/07/23 00:33:03;;;;;;;22.02;12.77;;;25.70;92.20;;;;;;4878781;29;20048;-66
2021/07/23 00:36:08;;;;;;;19.60;12.82;;;25.60;92.40;;;;;;4877574;29;20052;-67
2021/07/23 00:39:12;;;;;;;28.38;13.18;;;25.70;92.20;;;;;;4877881;29;20048;-65
2021/07/23 00:42:16;;;;;;;23.13;11.73;;;25.60;91.90;;;;;;4877325;29;20064;-65
2021/07/23 00:45:21;;;;;;;23.95;13.30;;;25.60;91.90;;;;;;4877831;29;20048;-65
2021/07/23 00:48:28;;;;;;;30.42;13.77;;;25.60;92.10;;;;;;4877807;29;20052;-66
2021/07/23 00:51:32;;;;;;;22.13;14.07;;;25.70;92.00;;;;;;4877927;29;20052;-65
2021/07/23 00:54:36;;;;;;;21.73;13.80;;;25.70;91.90;;;;;;4878372;29;20048;-65
2021/07/23 00:57:43;;;;;;;28.02;13.98;;;25.70;91.60;;;;;;4877787;29;20135;-65
2021/07/23 01:00:47;;;;;;;20.52;13.07;;;25.70;91.70;;;;;;4877728;29;20040;-65
2021/07/23 01:03:56;;;;;;;21.08;11.85;;;25.70;91.50;;;;;;4877626;29;20288;-65
2021/07/23 01:07:00;;;;;;;22.27;12.77;;;25.60;91.30;;;;;;4878457;29;20060;-65
2021/07/23 01:10:06;;;;;;;23.55;13.85;;;25.60;91.50;;;;;;4877665;29;20406;-66
2021/07/23 01:13:30;;;;;;;21.95;13.52;;;25.60;91.50;;;;;;4877448;29;20063;-65
2021/07/23 01:16:38;;;;;;;23.70;14.65;;;25.50;91.70;;;;;;4878150;29;20138;-66
2021/07/23 01:20:00;;;;;;;21.23;12.77;;;25.50;91.70;;;;;;4878098;29;20306;-65
2021/07/23 01:23:08;;;;;;;30.52;13.93;;;25.40;92.00;;;;;;4877117;29;20053;-65
2021/07/23 01:26:13;;;;;;;25.75;12.32;;;25.20;92.30;;;;;;4878186;29;20405;-66
2021/07/23 01:29:21;;;;;;;33.97;14.13;;;25.20;92.60;;;;;;4877071;29;20048;-65
2021/07/23 01:32:26;;;;;;;26.25;15.15;;;25.20;92.80;;;;;;4877269;29;20044;-65
2021/07/23 01:35:30;;;;;;;31.05;15.48;;;25.20;92.80;;;;;;4876580;29;20389;-67
2021/07/23 01:38:36;;;;;;;19.65;13.70;;;25.20;92.90;;;;;;4877888;29;20044;-65
2021/07/23 01:41:42;;;;;;;25.88;15.13;;;25.20;92.90;;;;;;4876928;29;20325;-65
2021/07/23 01:44:46;;;;;;;23.25;14.57;;;25.20;92.70;;;;;;4877318;29;20052;-65
2021/07/23 01:47:53;;;;;;;27.65;12.82;;;25.20;92.70;;;;;;4877117;29;20043;-65
2021/07/23 01:50:57;;;;;;;23.02;13.05;;;25.40;92.60;;;;;;4877909;29;20048;-65
2021/07/23 01:54:01;;;;;;;24.10;14.43;;;25.50;92.10;;;;;;4877285;29;20128;-66
2021/07/23 01:57:07;;;;;;;20.65;14.10;;;25.70;91.50;;;;;;4876806;29;20336;-65
2021/07/23 02:00:12;;;;;;;26.88;16.95;;;25.70;91.10;;;;;;4876644;29;20711;-65
2021/07/23 02:03:29;;;;;;;22.98;14.90;;;25.70;90.80;;;;;;4876484;29;20408;-65
2021/07/23 02:06:33;;;;;;;24.20;16.40;;;25.60;91.00;;;;;;4875588;29;20552;-65
2021/07/23 02:09:37;;;;;;;23.17;15.93;;;25.60;90.90;;;;;;4876283;29;20048;-64
2021/07/23 02:12:42;;;;;;;31.95;16.20;;;25.60;90.80;;;;;;4876301;29;20059;-65
2021/07/23 02:16:04;;;;;;;28.27;15.18;;;25.40;91.20;;;;;;4876424;29;20068;-65
2021/07/23 02:19:10;;;;;;;25.80;14.75;;;25.10;91.60;;;;;;4876635;29;20052;-65
2021/07/23 02:22:30;;;;;;;25.42;16.42;;;25.10;91.70;;;;;;4876088;29;20119;-65
2021/07/23 02:25:34;;;;;;;24.17;15.30;;;25.10;91.70;;;;;;4875099;29;20119;-65
2021/07/23 02:28:38;;;;;;;25.88;16.60;;;25.10;91.70;;;;;;4877033;29;20048;-65
2021/07/23 02:31:43;;;;;;;28.83;15.90;;;25.10;91.70;;;;;;4876083;29;20052;-65
2021/07/23 02:34:54;;;;;;;23.70;14.13;;;25.10;91.80;;;;;;4876365;29;20521;-65
2021/07/23 02:38:00;;;;;;;26.52;15.18;;;25.00;92.00;;;;;;4876227;29;20048;-65
2021/07/23 02:41:05;;;;;;;19.95;14.75;;;24.90;92.20;;;;;;4876230;29;20624;-65
2021/07/23 02:44:11;;;;;;;33.63;15.93;;;24.90;92.30;;;;;;4876934;29;20056;-65
2021/07/23 02:47:15;;;;;;;30.48;15.60;;;24.80;92.40;;;;;;4876964;29;20040;-65
2021/07/23 02:50:20;;;;;;;25.77;13.77;;;24.80;92.50;;;;;;4877249;29;20048;-65
2021/07/23 02:53:26;;;;;;;25.55;15.25;;;24.80;92.60;;;;;;4876970;29;20401;-65
2021/07/23 02:56:31;;;;;;;26.23;13.85;;;24.80;92.50;;;;;;4876289;29;20512;-65
2021/07/23 02:59:36;;;;;;;22.75;14.15;;;24.80;92.60;;;;;;4876139;29;20397;-65
2021/07/23 03:02:44;;;;;;;20.20;14.50;;;24.70;92.70;;;;;;4875890;29;20071;-65
2021/07/23 03:05:48;;;;;;;25.83;14.75;;;24.70;92.80;;;;;;4876855;29;20056;-66
2021/07/23 03:09:00;;;;;;;24.27;15.10;;;24.70;92.70;;;;;;4875910;29;20437;-66
2021/07/23 03:12:05;;;;;;;25.02;15.10;;;24.80;92.60;;;;;;4875953;29;20540;-66
2021/07/23 03:15:13;;;;;;;22.38;14.68;;;24.80;92.30;;;;;;4875955;29;20044;-65
2021/07/23 03:18:19;;;;;;;23.33;14.43;;;24.70;92.50;;;;;;4875444;29;20056;-65
2021/07/23 03:21:24;;;;;;;21.40;15.38;;;24.70;92.70;;;;;;4876111;29;20036;-65
2021/07/23 03:24:34;;;;;;;27.60;15.02;;;24.70;92.80;;;;;;4875775;29;20071;-65
2021/07/23 03:27:38;;;;;;;21.65;15.43;;;24.60;93.00;;;;;;4875899;29;20505;-65
2021/07/23 03:30:51;;;;;;;21.45;13.88;;;24.50;93.10;;;;;;4876056;29;20063;-65
2021/07/23 03:33:57;;;;;;;21.10;15.13;;;24.50;93.10;;;;;;4875503;29;20076;-65
2021/07/23 03:37:21;;;;;;;21.80;14.45;;;24.50;93.00;;;;;;4878450;29;20389;-65
2021/07/23 03:40:32;;;;;;;22.90;14.68;;;24.50;93.20;;;;;;4878943;29;20504;-65
2021/07/23 03:43:43;;;;;;;25.33;14.50;;;24.40;93.30;;;;;;4879005;29;20056;-65
2021/07/23 03:47:02;;;;;;;25.40;14.73;;;24.40;93.30;;;;;;4878983;29;20599;-65
2021/07/23 03:50:09;;;;;;;27.42;14.73;;;24.40;93.50;;;;;;4880002;29;20055;-65
2021/07/23 03:53:15;;;;;;;26.80;15.02;;;24.40;93.30;;;;;;4879120;29;20046;-65
2021/07/23 03:56:19;;;;;;;24.02;14.57;;;24.40;93.30;;;;;;4879688;29;20048;-65
2021/07/23 03:59:27;;;;;;;22.40;14.50;;;24.30;93.40;;;;;;4878810;29;20045;-65
2021/07/23 04:02:36;;;;;;;22.08;14.60;;;24.30;93.40;;;;;;4878539;29;20060;-65
2021/07/23 04:05:40;;;;;;;24.60;14.25;;;24.20;93.40;;;;;;4878500;29;20044;-65
2021/07/23 04:08:45;;;;;;;17.35;13.63;;;24.20;93.50;;;;;;4879370;29;20512;-65
2021/07/23 04:11:56;;;;;;;30.83;15.13;;;24.20;93.50;;;;;;4878344;29;20056;-65
2021/07/23 04:15:10;;;;;;;25.10;15.00;;;24.20;93.70;;;;;;4878348;29;20043;-65
2021/07/23 04:18:33;;;;;;;25.13;14.93;;;24.20;93.40;;;;;;4879275;29;20425;-65
2021/07/23 04:22:02;;;;;;;25.95;14.88;;;24.30;93.10;;;;;;4879466;29;20401;-65
2021/07/23 04:25:28;;;;;;;21.15;14.32;;;24.40;92.70;;;;;;4878249;29;20056;-65
2021/07/23 04:28:32;;;;;;;27.48;14.63;;;24.40;92.50;;;;;;4878403;29;20607;-65
2021/07/23 04:31:37;;;;;;;25.85;15.05;;;24.40;92.60;;;;;;4879084;29;20052;-66
2021/07/23 04:34:41;;;;;;;37.58;16.95;;;24.30;92.90;;;;;;4879054;29;20040;-65
2021/07/23 04:37:48;;;;;;;25.65;16.10;;;24.30;93.30;;;;;;4878274;29;20123;-65
2021/07/23 04:41:12;;;;;;;27.92;17.33;;;24.30;93.10;;;;;;4878682;29;20044;-65
2021/07/23 04:44:23;;;;;;;28.48;16.95;;;24.40;92.90;;;;;;4877927;29;20064;-65
2021/07/23 04:47:35;;;;;;;25.17;15.40;;;24.50;93.00;;;;;;4877386;29;20048;-65
2021/07/23 04:50:41;;;;;;;27.88;15.35;;;24.90;92.00;;;;;;4877814;29;20406;-65
2021/07/23 04:54:14;;;;;;;27.38;14.85;;;25.60;90.70;;;;;;4842470;29;20052;-66
2021/07/23 04:57:28;;;;;;;29.98;14.90;;;26.40;88.20;;;;;;4878421;29;20044;-65
2021/07/23 05:00:34;;;;;;;31.33;14.95;;;27.10;85.60;;;;;;4877415;29;20056;-66
2021/07/23 05:03:40;;;;;;;36.00;14.57;;;27.20;83.90;;;;;;4877337;29;20064;-66
2021/07/23 05:06:44;;;;;;;53.03;15.88;;;27.40;83.30;;;;;;4877280;29;20052;-67
2021/07/23 05:09:48;;;;;;;57.08;14.63;;;27.80;81.50;;;;;;4877769;29;20060;-66
2021/07/23 05:12:53;;;;;;;34.75;14.48;;;27.80;82.20;;;;;;4877401;29;20044;-66
2021/07/23 05:15:57;;;;;;;37.25;14.52;;;28.00;81.00;;;;;;4878167;29;20056;-66
2021/07/23 05:19:03;;;;;;;25.13;14.55;;;28.00;81.20;;;;;;4878260;29;20398;-66
2021/07/23 05:22:07;;;;;;;39.63;13.65;;;27.90;80.80;;;;;;4877862;29;20048;-67
2021/07/23 05:25:11;;;;;;;48.55;16.20;;;27.50;81.80;;;;;;4877944;29;20048;-70
2021/07/23 05:28:15;;;;;;;45.47;16.52;;;27.20;83.40;;;;;;4877930;29;20409;-69
2021/07/23 05:31:19;;;;;;;33.40;15.02;;;26.90;85.10;;;;;;4877935;29;20052;-69
2021/07/23 05:34:23;;;;;;;38.40;16.73;;;26.90;85.20;;;;;;4878085;29;20064;-67
2021/07/23 05:37:33;;;;;;;36.28;15.77;;;27.00;84.70;;;;;;4877723;29;20048;-69
2021/07/23 05:40:37;;;;;;;32.38;15.73;;;27.00;85.50;;;;;;4877938;29;20048;-69
2021/07/23 05:43:41;;;;;;;32.83;15.13;;;27.20;85.40;;;;;;4876530;29;20060;-69
2021/07/23 05:46:45;;;;;;;34.55;16.50;;;27.40;85.20;;;;;;4877508;29;20453;-69
2021/07/23 05:49:50;;;;;;;38.50;15.68;;;27.60;84.90;;;;;;4876385;29;20048;-69
2021/07/23 05:52:55;;;;;;;33.10;18.75;;;27.90;84.20;;;;;;4877490;29;20507;-68
2021/07/23 05:56:00;;;;;;;29.15;17.92;;;28.00;82.80;;;;;;4877595;29;20671;-69
2021/07/23 05:59:04;;;;;;;31.33;16.88;;;28.00;83.50;;;;;;4876414;29;20068;-70
2021/07/23 06:02:08;;;;;;;30.08;16.85;;;28.10;83.10;;;;;;4876950;29;20429;-71
2021/07/23 06:05:12;;;;;;;28.00;16.10;;;28.40;82.40;;;;;;4876392;29;20060;-69
2021/07/23 06:08:16;;;;;;;33.08;16.15;;;28.40;82.40;;;;;;4877479;29;20123;-69
2021/07/23 06:11:20;;;;;;;1434.13;149.90;;;28.20;82.50;;;;;;4876411;29;20496;-66
2021/07/23 06:14:25;;;;;;;749.40;85.32;;;28.30;82.90;;;;;;4877575;29;20041;-64
2021/07/23 06:17:29;;;;;;;34.50;17.48;;;28.40;82.90;;;;;;4877155;29;20043;-63
2021/07/23 06:20:36;;;;;;;42.50;16.27;;;28.60;81.70;;;;;;4877197;29;20504;-62
2021/07/23 06:23:40;;;;;;;27.40;15.88;;;29.00;81.30;;;;;;4876919;29;20060;-64
2021/07/23 06:26:44;;;;;;;35.22;15.63;;;29.00;81.70;;;;;;4876907;29;20071;-65
2021/07/23 06:29:49;;;;;;;30.75;15.57;;;29.10;83.40;;;;;;4875815;29;20052;-66
2021/07/23 06:32:53;;;;;;;33.83;14.75;;;29.20;80.30;;;;;;4876828;29;20401;-65
2021/07/23 06:36:00;;;;;;;24.05;15.68;;;29.40;81.80;;;;;;4877001;29;20052;-62
2021/07/23 06:39:04;;;;;;;29.35;15.98;;;29.30;79.50;;;;;;4877006;29;20056;-63
2021/07/23 06:42:08;;;;;;;31.35;15.95;;;29.20;80.60;;;;;;4876609;29;20108;-62
2021/07/23 06:45:13;;;;;;;25.60;16.55;;;29.40;79.20;;;;;;4877062;29;20405;-63
2021/07/23 06:48:17;;;;;;;36.67;17.58;;;29.40;79.30;;;;;;4876758;29;20413;-64
2021/07/23 06:51:21;;;;;;;33.63;15.38;;;29.50;79.20;;;;;;4876854;29;20304;-63
2021/07/23 06:54:26;;;;;;;31.27;16.52;;;29.60;79.10;;;;;;4876955;29;20450;-64
2021/07/23 06:57:33;;;;;;;32.67;16.50;;;30.20;78.30;;;;;;4876969;29;20075;-67
2021/07/23 07:00:37;;;;;;;29.63;15.27;;;30.30;77.20;;;;;;4876984;29;20044;-65
2021/07/23 07:03:42;;;;;;;31.10;15.02;;;30.70;76.90;;;;;;4875311;29;20060;-64
2021/07/23 07:06:46;;;;;;;27.08;14.52;;;31.10;75.70;;;;;;4876847;29;20064;-64
2021/07/23 07:09:50;;;;;;;29.80;14.63;;;31.30;74.90;;;;;;4876093;29;20060;-63
2021/07/23 07:12:59;;;;;;;286.58;32.45;;;31.20;75.10;;;;;;4878888;29;20043;-66
2021/07/23 07:16:03;;;;;;;44.60;19.90;;;31.30;75.50;;;;;;4880325;29;20048;-64
2021/07/23 07:19:07;;;;;;;164.20;38.25;;;31.30;75.70;;;;;;4880542;29;20068;-65
2021/07/23 07:22:11;;;;;;;130.85;33.40;;;31.40;76.20;;;;;;4880193;29;20044;-64
2021/07/23 07:25:15;;;;;;;62.35;19.17;;;31.50;75.70;;;;;;4880841;29;20401;-64
2021/07/23 07:28:19;;;;;;;34.00;16.50;;;31.60;75.20;;;;;;4880288;29;20048;-64
2021/07/23 07:31:23;;;;;;;53.70;18.55;;;31.90;74.20;;;;;;4879960;29;20048;-68
2021/07/23 07:34:32;;;;;;;31.55;14.80;;;31.90;74.20;;;;;;4880310;29;20045;-64
2021/07/23 07:37:36;;;;;;;74.00;19.25;;;32.20;73.60;;;;;;4880036;29;20048;-65
2021/07/23 07:40:40;;;;;;;40.50;17.95;;;32.40;73.10;;;;;;4880187;29;20049;-65
2021/07/23 07:43:45;;;;;;;25.95;13.50;;;32.40;73.00;;;;;;4879909;29;20079;-64
2021/07/23 07:46:50;;;;;;;33.10;14.20;;;32.50;72.20;;;;;;4879877;29;20044;-65
2021/07/23 07:49:54;;;;;;;35.80;14.25;;;32.70;71.70;;;;;;4879831;29;20103;-68
2021/07/23 07:52:58;;;;;;;30.30;15.30;;;32.80;72.00;;;;;;4879767;29;20044;-67
2021/07/23 07:56:06;;;;;;;26.33;13.20;;;33.20;70.40;;;;;;4880577;29;20063;-71
2021/07/23 07:59:10;;;;;;;21.10;14.05;;;33.00;70.20;;;;;;4879963;29;20056;-67
2021/07/23 08:02:16;;;;;;;34.30;12.15;;;33.30;69.90;;;;;;4880386;29;20052;-68
2021/07/23 08:05:21;;;;;;;30.88;14.38;;;33.40;69.80;;;;;;4880365;29;20060;-66
2021/07/23 08:08:24;;;;;;;26.92;12.50;;;33.60;69.50;;;;;;4869067;29;20044;-67
2021/07/23 08:11:28;;;;;;;49.75;13.18;;;33.80;68.90;;;;;;4880290;29;20060;-68
2021/07/23 08:14:32;;;;;;;237.07;22.83;;;33.90;68.40;;;;;;4880362;29;20048;-68
2021/07/23 08:17:36;;;;;;;42.90;13.18;;;34.00;68.80;;;;;;4880047;29;20051;-69
2021/07/23 08:20:42;;;;;;;30.63;13.93;;;34.00;68.50;;;;;;4879250;29;20048;-67
2021/07/23 08:23:46;;;;;;;20.40;11.63;;;34.10;68.00;;;;;;4877602;29;20060;-66
2021/07/23 08:26:50;;;;;;;21.15;10.90;;;34.00;67.50;;;;;;4878603;29;20044;-66
2021/07/23 08:29:55;;;;;;;23.88;10.60;;;34.00;67.90;;;;;;4878497;29;20151;-66
2021/07/23 08:32:59;;;;;;;19.27;11.10;;;34.00;67.80;;;;;;4879568;29;20516;-66
2021/07/23 08:36:03;;;;;;;20.98;10.68;;;34.10;67.50;;;;;;4879473;29;20044;-66
2021/07/23 08:39:07;;;;;;;22.08;10.88;;;34.00;67.30;;;;;;4879262;29;20056;-66
2021/07/23 08:42:29;;;;;;;18.17;11.07;;;33.90;67.40;;;;;;4878650;29;20068;-66
2021/07/23 08:45:33;;;;;;;20.13;10.63;;;34.00;68.10;;;;;;4878906;29;20055;-65
2021/07/23 08:48:41;;;;;;;18.58;11.05;;;34.00;68.00;;;;;;4879688;29;20060;-68
2021/07/23 08:51:52;;;;;;;22.80;11.00;;;34.10;68.50;;;;;;4879324;29;20048;-67
2021/07/23 08:54:56;;;;;;;22.35;10.68;;;33.90;68.00;;;;;;4878769;29;20052;-66
2021/07/23 08:58:00;;;;;;;19.08;10.80;;;33.80;68.60;;;;;;4878905;29;20064;-67
2021/07/23 09:01:06;;;;;;;21.67;10.18;;;33.70;69.00;;;;;;4879243;29;20048;-67
2021/07/23 09:04:31;;;;;;;17.52;10.27;;;33.60;69.40;;;;;;4879108;29;20060;-68
2021/07/23 09:07:35;;;;;;;22.13;10.18;;;33.70;69.60;;;;;;4879281;29;20385;-69
2021/07/23 09:10:39;;;;;;;23.90;10.07;;;33.80;69.60;;;;;;4878564;29;20048;-67
2021/07/23 09:13:43;;;;;;;22.40;9.93;;;33.90;69.80;;;;;;4879310;29;20505;-68
2021/07/23 09:16:54;;;;;;;16.45;10.15;;;33.90;69.10;;;;;;4878809;29;20048;-65
2021/07/23 09:20:03;;;;;;;23.20;10.35;;;33.70;69.60;;;;;;4878037;29;20052;-66
2021/07/23 09:23:07;;;;;;;21.30;9.90;;;33.80;69.60;;;;;;4878396;29;20512;-70
2021/07/23 09:26:12;;;;;;;19.23;9.52;;;35.50;66.30;;;;;;4878335;29;20044;-65
2021/07/23 09:29:16;;;;;;;23.50;10.73;;;36.90;63.00;;;;;;4878121;29;20441;-66
2021/07/23 09:32:26;;;;;;;17.83;10.20;;;37.80;61.30;;;;;;4877480;29;20064;-66
2021/07/23 09:35:30;;;;;;;18.50;9.38;;;37.70;60.40;;;;;;4877162;29;20048;-65
2021/07/23 09:38:38;;;;;;;17.38;9.25;;;38.00;59.60;;;;;;4866230;29;20056;-64
2021/07/23 09:41:43;;;;;;;13.90;9.50;;;38.40;58.30;;;;;;4878108;29;20052;-65
2021/07/23 09:44:47;;;;;;;18.98;9.90;;;37.90;58.60;;;;;;4878096;29;20068;-65
2021/07/23 09:47:51;;;;;;;20.40;8.95;;;37.70;59.00;;;;;;4878568;29;20386;-67
2021/07/23 09:50:55;;;;;;;29.70;9.70;;;37.80;59.50;;;;;;4878845;29;20052;-72
2021/07/23 09:54:00;;;;;;;17.65;9.45;;;37.60;58.50;;;;;;4877678;29;20044;-67
2021/07/23 09:57:10;;;;;;;14.05;7.90;;;37.70;57.40;;;;;;4878276;29;20052;-68
2021/07/23 10:00:17;;;;;;;17.80;7.63;;;38.10;55.70;;;;;;4878312;29;20048;-67
2021/07/23 10:03:26;;;;;;;14.95;8.90;;;38.40;54.70;;;;;;4878124;29;20056;-67
2021/07/23 10:06:48;;;;;;;29.00;9.90;;;38.70;54.30;;;;;;4878070;29;20064;-67
2021/07/23 10:09:56;;;;;;;17.23;8.77;;;38.60;54.70;;;;;;4878024;29;20216;-69
2021/07/23 10:13:01;;;;;;;16.83;7.85;;;38.70;54.40;;;;;;4877722;29;20044;-66
2021/07/23 10:16:09;;;;;;;14.65;9.07;;;38.40;55.00;;;;;;4877954;29;20052;-68
2021/07/23 10:19:13;;;;;;;15.52;9.75;;;38.40;54.60;;;;;;4877765;29;20052;-67
2021/07/23 10:22:17;;;;;;;15.23;9.80;;;38.60;56.00;;;;;;4877373;29;20048;-67
2021/07/23 10:25:25;;;;;;;16.27;9.15;;;38.50;55.40;;;;;;4879214;29;20056;-70
2021/07/23 10:28:43;;;;;;;16.98;8.98;;;38.60;54.60;;;;;;4878761;29;20048;-71
2021/07/23 10:31:48;;;;;;;16.13;9.15;;;38.30;54.80;;;;;;4878098;29;20040;-70
2021/07/23 10:34:59;;;;;;;20.65;9.60;;;38.60;54.40;;;;;;4877006;29;20520;-71
2021/07/23 10:38:04;;;;;;;20.27;9.43;;;38.50;54.30;;;;;;4877785;29;20053;-67
2021/07/23 10:41:12;;;;;;;14.32;9.05;;;38.60;55.20;;;;;;4879143;29;20089;-72
2021/07/23 10:44:28;;;;;;;18.25;9.38;;;39.00;54.90;;;;;;4866192;29;20055;-71
2021/07/23 10:47:44;;;;;;;15.73;8.38;;;39.00;54.70;;;;;;4880337;29;20049;-70
2021/07/23 10:50:49;;;;;;;23.52;9.68;;;38.90;54.20;;;;;;4882747;29;20052;-71
2021/07/23 10:54:03;;;;;;;17.38;9.23;;;38.90;54.10;;;;;;4883158;29;20044;-71
2021/07/23 10:57:09;;;;;;;16.27;9.43;;;38.70;54.50;;;;;;4882001;29;20067;-69
2021/07/23 11:00:13;;;;;;;15.93;9.30;;;38.80;54.10;;;;;;4882829;29;20060;-72
2021/07/23 11:03:36;;;;;;;15.50;8.57;;;38.80;54.10;;;;;;4881520;29;20059;-72
2021/07/23 11:06:41;;;;;;;13.27;8.40;;;38.50;54.20;;;;;;4870579;29;20048;-70
2021/07/23 11:09:45;;;;;;;15.73;8.40;;;38.80;53.90;;;;;;4882484;29;20052;-69
2021/07/23 11:12:50;;;;;;;19.90;9.18;;;38.80;53.20;;;;;;4881584;29;20516;-67
2021/07/23 11:16:14;;;;;;;17.08;8.68;;;37.80;54.70;;;;;;4881366;29;20044;-67
2021/07/23 11:19:22;;;;;;;19.75;8.98;;;37.10;56.30;;;;;;4881081;29;20500;-69
2021/07/23 11:22:35;;;;;;;24.02;8.52;;;36.60;56.60;;;;;;4880589;29;20497;-67
2021/07/23 11:25:48;;;;;;;27.33;8.82;;;36.20;57.30;;;;;;4880969;29;20504;-67
2021/07/23 11:28:56;;;;;;;18.13;8.57;;;35.90;58.50;;;;;;4879926;29;20052;-67
2021/07/23 11:32:12;;;;;;;17.98;8.73;;;35.60;59.00;;;;;;4880377;29;20052;-67
2021/07/23 11:35:16;;;;;;;17.05;8.35;;;35.60;59.20;;;;;;4880559;29;20409;-71
2021/07/23 11:38:22;;;;;;;12.73;8.05;;;35.50;59.50;;;;;;4881406;29;20428;-70
2021/07/23 11:41:26;;;;;;;18.70;8.40;;;35.50;60.20;;;;;;4881837;29;20060;-71
2021/07/23 11:44:30;;;;;;;12.80;7.93;;;35.40;60.40;;;;;;4881396;29;20060;-72
2021/07/23 11:47:36;;;;;;;20.85;8.82;;;35.40;60.70;;;;;;4881875;29;20409;-69
2021/07/23 11:50:52;;;;;;;11.52;8.07;;;35.40;61.10;;;;;;4881253;29;20056;-67
2021/07/23 11:53:57;;;;;;;25.25;9.05;;;35.30;61.50;;;;;;4881386;29;20398;-69
2021/07/23 11:57:02;;;;;;;19.75;9.55;;;35.20;61.60;;;;;;4881230;29;20048;-67
2021/07/23 12:00:29;;;;;;;15.20;8.88;;;35.00;62.10;;;;;;4880469;29;20048;-67
2021/07/23 12:03:33;;;;;;;24.27;9.35;;;34.90;62.60;;;;;;4886235;29;20052;-70
2021/07/23 12:06:44;;;;;;;15.77;9.27;;;34.80;63.20;;;;;;4881997;29;20068;-70
2021/07/23 12:09:49;;;;;;;20.75;8.68;;;34.70;63.80;;;;;;4882021;29;20401;-70
2021/07/23 12:12:53;;;;;;;19.85;9.07;;;34.50;64.70;;;;;;4880143;29;20048;-66
2021/07/23 12:15:58;;;;;;;20.90;8.35;;;34.30;64.90;;;;;;4879991;29;20075;-67
2021/07/23 12:19:08;;;;;;;15.50;8.38;;;34.20;65.50;;;;;;4881158;29;20096;-68
2021/07/23 12:22:16;;;;;;;17.33;8.07;;;34.10;65.90;;;;;;4881697;29;20044;-68
2021/07/23 12:25:21;;;;;;;15.52;8.95;;;34.00;66.70;;;;;;4881573;29;20072;-68
2021/07/23 12:28:25;;;;;;;15.32;8.27;;;33.90;66.30;;;;;;4881709;29;20429;-67
2021/07/23 12:31:30;;;;;;;18.67;8.40;;;33.80;66.70;;;;;;4880847;29;20528;-74
2021/07/23 12:34:34;;;;;;;24.35;9.40;;;33.70;66.80;;;;;;4881165;29;20052;-75
2021/07/23 12:37:38;;;;;;;16.75;8.27;;;33.70;67.00;;;;;;4879362;29;20036;-67
2021/07/23 12:40:51;;;;;;;14.65;8.32;;;33.60;67.20;;;;;;4880054;29;20048;-68
2021/07/23 12:44:11;;;;;;;10.52;7.20;;;33.60;67.40;;;;;;4881716;29;20409;-69
2021/07/23 12:47:24;;;;;;;18.65;8.15;;;33.40;67.50;;;;;;4880116;29;20048;-68
2021/07/23 12:50:28;;;;;;;20.70;8.40;;;33.30;67.10;;;;;;4879973;29;20406;-67
2021/07/23 12:53:34;;;;;;;23.65;8.50;;;33.20;67.20;;;;;;4879342;29;20048;-65
2021/07/23 12:56:43;;;;;;;16.88;8.30;;;33.20;67.60;;;;;;4865913;29;20056;-65
2021/07/23 12:59:51;;;;;;;20.88;8.18;;;33.00;67.00;;;;;;4878704;29;20060;-63
2021/07/23 13:02:58;;;;;;;20.70;8.10;;;32.80;67.60;;;;;;4878846;29;20048;-68
2021/07/23 13:06:03;;;;;;;11.98;7.47;;;32.80;68.10;;;;;;4879527;29;20060;-65
2021/07/23 13:09:07;;;;;;;10.15;6.97;;;32.70;68.50;;;;;;4877446;29;20052;-63
2021/07/23 13:12:17;;;;;;;17.67;7.68;;;32.70;68.40;;;;;;4875160;29;20304;-64
2021/07/23 13:15:22;;;;;;;20.10;7.35;;;32.70;68.80;;;;;;4876925;29;20048;-64
2021/07/23 13:18:26;;;;;;;18.60;7.30;;;32.80;68.30;;;;;;4875909;29;20524;-64
2021/07/23 13:21:30;;;;;;;11.18;6.97;;;32.80;69.40;;;;;;4876971;29;20529;-63
2021/07/23 13:24:35;;;;;;;26.55;7.50;;;32.80;69.30;;;;;;4876815;29;20086;-66
2021/07/23 13:27:40;;;;;;;14.05;8.15;;;32.80;69.00;;;;;;4877031;29;20048;-65
2021/07/23 13:30:45;;;;;;;13.45;7.43;;;32.80;69.00;;;;;;4878340;29;20048;-64
2021/07/23 13:33:51;;;;;;;14.90;7.47;;;32.80;69.30;;;;;;4878493;29;20509;-66
2021/07/23 13:37:05;;;;;;;10.40;7.00;;;32.80;69.50;;;;;;4878399;29;20052;-62
2021/07/23 13:40:13;;;;;;;13.30;7.28;;;32.80;69.60;;;;;;4878396;29;20055;-65
2021/07/23 13:43:17;;;;;;;14.45;7.00;;;32.80;68.70;;;;;;4878117;29;20060;-64
2021/07/23 13:46:22;;;;;;;11.95;6.75;;;32.80;68.20;;;;;;4878353;29;20056;-63
2021/07/23 13:49:26;;;;;;;11.75;6.78;;;32.80;69.20;;;;;;4877248;29;20497;-64
2021/07/23 13:52:30;;;;;;;18.38;7.85;;;32.70;69.50;;;;;;4877893;29;20069;-65
2021/07/23 13:55:34;;;;;;;15.65;7.32;;;32.70;69.70;;;;;;4877847;29;20305;-63
2021/07/23 13:58:38;;;;;;;11.85;6.53;;;32.60;70.10;;;;;;4876967;29;20060;-63
2021/07/23 14:01:42;;;;;;;14.63;6.88;;;32.60;70.30;;;;;;4877854;29;20052;-63
2021/07/23 14:04:50;;;;;;;17.80;6.82;;;32.60;71.00;;;;;;4877775;29;20135;-66
2021/07/23 14:07:54;;;;;;;16.35;6.50;;;32.60;70.70;;;;;;4877850;29;20043;-63
2021/07/23 14:11:01;;;;;;;27.77;6.95;;;32.50;70.50;;;;;;4876520;29;20052;-64
2021/07/23 14:14:06;;;;;;;22.98;6.97;;;32.50;71.00;;;;;;4877795;29;20053;-63
2021/07/23 14:17:10;;;;;;;15.20;6.75;;;32.40;71.30;;;;;;4877549;29;20044;-63
2021/07/23 14:20:14;;;;;;;18.75;8.40;;;32.40;71.40;;;;;;4877400;29;20405;-63
2021/07/23 14:23:17;;;;;;;10.13;6.43;;;32.30;71.50;;;;;;4876954;29;20048;-64
2021/07/23 14:26:22;;;;;;;19.67;6.95;;;32.20;71.80;;;;;;4877395;29;20056;-64
2021/07/23 14:29:26;;;;;;;13.73;6.85;;;32.10;72.00;;;;;;4877851;29;20394;-65
2021/07/23 14:32:30;;;;;;;16.75;7.75;;;32.10;72.20;;;;;;4877303;29;20401;-62
2021/07/23 14:35:34;;;;;;;16.42;7.75;;;32.10;71.10;;;;;;4877362;29;20048;-63
2021/07/23 14:38:42;;;;;;;18.70;6.88;;;32.10;72.00;;;;;;4876529;29;20044;-63
2021/07/23 14:41:47;;;;;;;15.30;6.50;;;32.70;69.70;;;;;;4877273;29;20056;-64
2021/07/23 14:44:51;;;;;;;16.60;7.22;;;33.50;68.00;;;;;;4877299;29;20060;-62
2021/07/23 14:47:56;;;;;;;18.30;7.22;;;34.30;65.50;;;;;;4876344;29;20048;-63
2021/07/23 14:51:01;;;;;;;11.52;6.30;;;34.80;64.90;;;;;;4877128;29;20048;-66
2021/07/23 14:54:04;;;;;;;11.85;6.25;;;35.00;64.40;;;;;;4877001;29;20052;-64
2021/07/23 14:57:09;;;;;;;14.52;7.25;;;35.00;63.90;;;;;;4876673;29;20060;-66
2021/07/23 15:00:16;;;;;;;15.35;7.07;;;35.00;64.00;;;;;;4876262;29;20056;-63
2021/07/23 15:03:20;;;;;;;12.13;7.03;;;35.00;63.70;;;;;;4876148;29;20656;-63
2021/07/23 15:06:24;;;;;;;16.27;7.47;;;35.30;64.40;;;;;;4876929;29;20528;-64
2021/07/23 15:09:28;;;;;;;18.73;8.93;;;35.90;63.50;;;;;;4877098;29;20052;-63
2021/07/23 15:12:32;;;;;;;13.48;7.28;;;36.20;61.90;;;;;;4877064;29;20052;-63
2021/07/23 15:15:37;;;;;;;11.52;6.70;;;36.20;61.60;;;;;;4877087;29;20048;-66
2021/07/23 15:18:44;;;;;;;28.08;7.78;;;36.20;61.50;;;;;;4876795;29;20048;-61
2021/07/23 15:21:53;;;;;;;27.73;8.05;;;36.10;60.80;;;;;;4876088;29;20409;-64
2021/07/23 15:24:57;;;;;;;29.90;8.00;;;36.00;61.10;;;;;;4876314;29;20082;-63
2021/07/23 15:28:01;;;;;;;34.38;7.82;;;35.90;61.70;;;;;;4877235;29;20048;-63
2021/07/23 15:31:08;;;;;;;12.65;7.38;;;36.30;61.00;;;;;;4876830;29;20052;-63
2021/07/23 15:34:12;;;;;;;22.08;7.25;;;36.40;60.80;;;;;;4879592;29;20437;-63
2021/07/23 15:37:17;;;;;;;19.65;7.20;;;36.90;60.00;;;;;;4878995;29;20048;-63
2021/07/23 15:40:21;;;;;;;20.15;7.68;;;37.00;60.30;;;;;;4879696;29;20060;-65
2021/07/23 15:43:25;;;;;;;18.20;8.25;;;36.60;60.30;;;;;;4879618;29;20060;-63
2021/07/23 15:46:29;;;;;;;14.57;7.35;;;36.70;60.30;;;;;;4878913;29;20417;-64
2021/07/23 15:49:34;;;;;;;21.27;7.93;;;37.00;59.20;;;;;;4879885;29;20060;-65
2021/07/23 15:52:39;;;;;;;33.25;11.60;;;37.00;58.90;;;;;;4880033;29;20072;-63